createdAt,value
2023-03-23T15:58:14.071Z,14.01
2023-03-23T16:00:43.097Z,13.94
2023-03-23T16:03:15.122Z,14.03
2023-03-23T16:05:41.926Z,14.01
2023-03-23T16:08:12.077Z,14.00
2023-03-23T16:10:39.000Z,13.95
2023-03-23T16:13:06.149Z,13.95
2023-03-23T16:15:32.671Z,13.96
2023-03-23T16:17:59.144Z,13.96
2023-03-23T16:20:25.709Z,13.96
2023-03-23T16:22:52.534Z,13.95
2023-03-23T16:25:19.531Z,13.93
2023-03-23T16:27:54.419Z,13.90
2023-03-23T16:30:24.697Z,13.90
2023-03-23T16:32:51.523Z,13.90
2023-03-23T16:35:19.129Z,13.87
2023-03-23T16:37:51.064Z,13.86
2023-03-23T16:40:34.040Z,13.84
2023-03-23T16:43:00.661Z,13.79
2023-03-23T16:45:27.322Z,13.78
2023-03-23T16:47:55.823Z,13.76
2023-03-23T16:50:22.325Z,13.75
2023-03-23T16:52:48.909Z,13.75
2023-03-23T16:55:17.054Z,13.72
2023-03-23T16:57:43.669Z,13.66
2023-03-23T17:00:14.941Z,13.69
2023-03-23T17:02:43.176Z,13.66
2023-03-23T17:05:11.135Z,13.62
2023-03-23T17:07:39.228Z,13.57
2023-03-23T17:10:07.208Z,13.61
2023-03-23T17:12:34.100Z,13.59
2023-03-23T17:15:00.838Z,13.56
2023-03-23T17:17:28.436Z,13.52
2023-03-23T17:19:55.117Z,13.53
2023-03-23T17:22:21.572Z,13.50
2023-03-23T17:24:48.051Z,13.45
2023-03-23T17:27:18.090Z,13.47
2023-03-23T17:29:45.432Z,13.41
2023-03-23T17:32:12.624Z,13.44
2023-03-23T17:34:39.169Z,13.38
2023-03-23T17:37:06.376Z,13.34
2023-03-23T17:39:33.169Z,13.34
2023-03-23T17:42:09.832Z,13.30
2023-03-23T17:44:36.409Z,13.29
2023-03-23T17:47:03.139Z,13.30
2023-03-23T17:49:32.473Z,13.29
2023-03-23T17:51:59.707Z,13.25
2023-03-23T17:54:29.036Z,13.23
2023-03-23T17:56:58.447Z,13.22
2023-03-23T17:59:25.964Z,13.20
2023-03-23T18:01:53.523Z,13.18
2023-03-23T18:04:20.211Z,13.15
2023-03-23T18:06:46.678Z,13.06
2023-03-23T18:09:13.120Z,13.12
2023-03-23T18:11:39.549Z,13.08
2023-03-23T18:14:06.072Z,13.09
2023-03-23T18:16:32.587Z,13.09
2023-03-23T18:18:59.395Z,13.08
2023-03-23T18:21:26.967Z,13.03
2023-03-23T18:23:59.332Z,13.01
2023-03-23T18:26:27.840Z,13.01
2023-03-23T18:28:54.664Z,13.00
2023-03-23T18:31:21.766Z,13.01
2023-03-23T18:33:50.112Z,12.99
2023-03-23T18:36:23.045Z,12.84
2023-03-23T18:38:50.212Z,12.98
2023-03-23T18:41:18.047Z,12.96
2023-03-23T18:43:45.018Z,12.95
2023-03-23T18:46:11.590Z,12.93
2023-03-23T18:48:38.353Z,12.89
2023-03-23T18:51:05.048Z,12.86
2023-03-23T18:53:32.810Z,12.90
2023-03-23T18:56:15.731Z,12.84
2023-03-23T18:58:42.648Z,12.86
2023-03-23T19:01:12.388Z,12.86
2023-03-23T19:03:40.351Z,12.85
2023-03-23T19:06:14.243Z,12.80
2023-03-23T19:08:40.865Z,12.82
2023-03-23T19:11:12.384Z,12.81
2023-03-23T19:13:40.325Z,12.81
2023-03-23T19:16:11.169Z,12.75
2023-03-23T19:18:37.749Z,12.73
2023-03-23T19:23:34.199Z,12.76
2023-03-23T19:26:00.744Z,12.75
2023-03-23T19:30:58.428Z,12.72
2023-03-23T19:33:26.298Z,12.72
2023-03-23T19:36:06.255Z,12.70
2023-03-23T19:38:36.402Z,12.71
2023-03-23T19:41:04.081Z,12.69
2023-03-23T19:43:32.080Z,12.68
2023-03-23T19:45:58.860Z,12.63
2023-03-23T19:48:25.423Z,12.66
2023-03-23T19:50:53.032Z,12.68
2023-03-23T19:53:20.055Z,12.64
2023-03-23T19:55:46.763Z,12.63
2023-03-23T19:58:14.174Z,12.65
2023-03-23T20:00:41.254Z,12.64
2023-03-23T20:03:07.904Z,12.61
2023-03-23T20:05:35.880Z,12.63
2023-03-23T20:08:04.640Z,12.59
2023-03-23T20:10:34.588Z,12.59
2023-03-23T20:13:02.220Z,12.59
2023-03-23T20:15:30.362Z,12.55
2023-03-23T20:17:58.291Z,12.56
2023-03-23T20:20:25.890Z,12.55
2023-03-23T20:22:54.395Z,12.53
2023-03-23T20:25:22.604Z,12.53
2023-03-23T20:27:49.097Z,12.54
2023-03-23T20:30:17.013Z,12.54
2023-03-23T20:32:46.309Z,12.48
2023-03-23T20:35:14.605Z,12.51
2023-03-23T20:37:41.233Z,12.49
2023-03-23T20:40:11.353Z,12.49
2023-03-23T20:42:38.630Z,12.49
2023-03-23T20:45:06.219Z,12.45
2023-03-23T20:47:32.846Z,12.44
2023-03-23T20:50:00.137Z,12.45
2023-03-23T20:52:27.160Z,12.45
2023-03-23T20:54:54.908Z,12.42
2023-03-23T20:57:22.141Z,12.39
2023-03-23T20:59:50.727Z,12.39
2023-03-23T21:02:18.775Z,12.38
2023-03-23T21:04:45.750Z,12.38
2023-03-23T21:07:13.119Z,12.38
2023-03-23T21:09:40.828Z,12.36
2023-03-23T21:12:10.109Z,12.35
2023-03-23T21:14:38.539Z,12.34
2023-03-23T21:17:06.446Z,12.32
2023-03-23T21:19:33.906Z,12.33
2023-03-23T21:22:00.456Z,12.32
2023-03-23T21:24:29.171Z,12.30
2023-03-23T21:26:57.874Z,12.28
2023-03-23T21:29:24.924Z,12.29
2023-03-23T21:32:00.909Z,12.27
2023-03-23T21:34:31.714Z,12.29
2023-03-23T21:36:58.144Z,12.28
2023-03-23T21:39:24.692Z,12.28
2023-03-23T21:41:51.192Z,12.28
2023-03-23T21:44:18.077Z,12.28
2023-03-23T21:46:44.941Z,12.27
2023-03-23T21:49:13.911Z,12.27
2023-03-23T21:51:41.775Z,12.28
2023-03-23T21:54:09.228Z,12.27
2023-03-23T21:56:36.701Z,12.25
2023-03-23T21:59:04.583Z,12.27
2023-03-23T22:01:31.183Z,12.27
2023-03-23T22:03:57.947Z,12.25
2023-03-23T22:06:28.186Z,12.27
2023-03-23T22:08:55.210Z,12.27
2023-03-23T22:11:27.363Z,12.27
2023-03-23T22:13:55.986Z,12.26
2023-03-23T22:16:23.235Z,12.27
2023-03-23T22:18:52.208Z,12.27
2023-03-23T22:21:21.893Z,12.25
2023-03-23T22:23:48.922Z,12.26
2023-03-23T22:26:16.358Z,12.26
2023-03-23T22:28:43.816Z,12.25
2023-03-23T22:31:23.479Z,12.25
2023-03-23T22:33:54.019Z,12.22
2023-03-23T22:36:21.399Z,12.26
2023-03-23T22:38:48.472Z,12.27
2023-03-23T22:41:36.873Z,12.23
2023-03-23T22:44:04.777Z,12.24
2023-03-23T22:46:31.924Z,12.24
2023-03-23T22:48:58.355Z,12.23
2023-03-23T22:51:25.463Z,12.23
2023-03-23T22:53:51.951Z,12.23
2023-03-23T22:56:18.677Z,12.24
2023-03-23T22:58:45.261Z,12.23
2023-03-23T23:01:17.459Z,12.20
2023-03-23T23:03:44.803Z,12.22
2023-03-23T23:06:12.888Z,12.23
2023-03-23T23:08:39.651Z,12.19
2023-03-23T23:11:06.729Z,12.22
2023-03-23T23:13:33.344Z,12.21
2023-03-23T23:16:01.409Z,12.21
2023-03-23T23:18:28.100Z,12.20
2023-03-23T23:20:57.302Z,12.20
2023-03-23T23:23:25.678Z,12.18
2023-03-23T23:25:52.140Z,12.19
2023-03-23T23:28:19.669Z,12.19
2023-03-23T23:30:46.793Z,12.18
2023-03-23T23:33:13.944Z,12.16
2023-03-23T23:35:41.619Z,12.16
2023-03-23T23:38:09.651Z,12.14
2023-03-23T23:40:36.413Z,12.17
2023-03-23T23:43:04.057Z,12.17
2023-03-23T23:45:31.485Z,12.16
2023-03-23T23:47:58.361Z,12.17
2023-03-23T23:50:25.495Z,12.17
2023-03-23T23:52:52.261Z,12.15
2023-03-23T23:55:19.519Z,12.17
2023-03-23T23:57:47.499Z,12.17
